Time;durP1;ratioP1;P1;durP2;ratioP2;P2;SDS_P1;SDS_P2;PMS_P1;PMS_P2;Temp;Humidity;BMP_temperature;BMP_pressure;BME280_temperature;BME280_humidity;BME280_pressure;Samples;Min_cycle;Max_cycle;Signal;HPM_P1;HPM_P2
2022/03/22 00:01:48;;;;;;;47.35;28.42;;;4.50;91.40;;;;;;5081484;28;20218;-47
2022/03/22 00:04:16;;;;;;;44.65;29.55;;;4.50;91.40;;;;;;5082764;28;20209;-47
2022/03/22 00:06:44;;;;;;;53.28;29.80;;;4.50;91.50;;;;;;5082374;28;20201;-48
2022/03/22 00:09:11;;;;;;;50.63;31.80;;;4.60;91.50;;;;;;5081513;28;20199;-46
2022/03/22 00:11:38;;;;;;;50.50;33.65;;;4.60;91.60;;;;;;5081036;28;20224;-47
2022/03/22 00:14:08;;;;;;;44.85;29.65;;;4.30;92.20;;;;;;5081516;28;20202;-46
2022/03/22 00:16:36;;;;;;;58.00;34.03;;;4.30;92.30;;;;;;5081702;28;20461;-46
2022/03/22 00:19:23;;;;;;;57.47;31.52;;;4.30;92.40;;;;;;5081491;28;20210;-47
2022/03/22 00:21:50;;;;;;;52.72;30.90;;;4.30;92.40;;;;;;5081699;28;20313;-44
2022/03/22 00:24:17;;;;;;;41.33;27.98;;;4.40;92.50;;;;;;5081243;28;20209;-45
2022/03/22 00:26:44;;;;;;;59.63;34.70;;;4.40;92.50;;;;;;5081297;28;20202;-43
2022/03/22 00:29:12;;;;;;;45.88;30.40;;;4.30;92.60;;;;;;5081272;28;20195;-48
2022/03/22 00:31:39;;;;;;;50.40;29.85;;;4.30;92.80;;;;;;5081184;28;20232;-46
2022/03/22 00:34:07;;;;;;;54.47;32.47;;;4.30;92.80;;;;;;5081611;28;20563;-44
2022/03/22 00:36:34;;;;;;;56.30;31.55;;;4.30;92.90;;;;;;5081282;28;20202;-44
2022/03/22 00:39:02;;;;;;;61.13;31.63;;;4.30;92.80;;;;;;5081370;28;20386;-46
2022/03/22 00:41:29;;;;;;;49.13;30.80;;;4.40;92.70;;;;;;5081889;28;20228;-43
2022/03/22 00:43:56;;;;;;;45.40;27.58;;;4.50;92.50;;;;;;5080866;28;20225;-45
2022/03/22 00:46:24;;;;;;;45.85;29.73;;;4.50;92.50;;;;;;5081408;28;20255;-45
2022/03/22 00:48:51;;;;;;;48.60;30.33;;;4.30;92.60;;;;;;5081461;28;20195;-44
2022/03/22 00:51:20;;;;;;;38.63;28.13;;;4.30;92.80;;;;;;5081206;28;20218;-45
2022/03/22 00:53:48;;;;;;;52.40;29.05;;;4.30;93.00;;;;;;5081946;28;20202;-43
2022/03/22 00:56:17;;;;;;;49.00;30.35;;;4.20;93.00;;;;;;5081055;28;20425;-48
2022/03/22 00:58:45;;;;;;;46.92;31.50;;;4.30;93.00;;;;;;5081394;28;20218;-46
2022/03/22 01:01:12;;;;;;;49.22;28.55;;;4.30;92.90;;;;;;5081131;28;20241;-46
2022/03/22 01:03:40;;;;;;;51.42;29.70;;;4.20;93.10;;;;;;5081634;28;20234;-44
2022/03/22 01:06:07;;;;;;;47.22;30.17;;;4.20;93.10;;;;;;5081944;28;20209;-45
2022/03/22 01:08:37;;;;;;;45.33;28.77;;;4.10;93.20;;;;;;5083419;28;20207;-45
2022/03/22 01:11:04;;;;;;;39.42;25.83;;;4.10;93.30;;;;;;5084379;28;20216;-49
2022/03/22 01:13:32;;;;;;;43.05;29.38;;;4.00;93.30;;;;;;5086767;28;20209;-48
2022/03/22 01:15:59;;;;;;;44.05;26.55;;;3.80;93.70;;;;;;5087037;28;20558;-48
2022/03/22 01:18:27;;;;;;;49.08;27.10;;;3.80;94.00;;;;;;5082612;28;20263;-48
2022/03/22 01:20:55;;;;;;;43.47;28.50;;;3.80;94.10;;;;;;5082649;28;20571;-44
2022/03/22 01:23:23;;;;;;;43.30;26.38;;;3.70;94.10;;;;;;5080737;28;20236;-46
2022/03/22 01:25:51;;;;;;;37.28;25.13;;;4.00;93.90;;;;;;5081162;28;20202;-44
2022/03/22 01:28:19;;;;;;;51.45;29.77;;;3.90;93.60;;;;;;5081032;28;20198;-45
2022/03/22 01:30:46;;;;;;;41.70;26.55;;;3.90;93.60;;;;;;5079840;28;20218;-44
2022/03/22 01:33:13;;;;;;;46.72;29.17;;;3.70;94.00;;;;;;5080422;28;20202;-44
2022/03/22 01:35:43;;;;;;;44.15;25.52;;;3.60;94.00;;;;;;5080322;28;20273;-45
2022/03/22 01:38:12;;;;;;;37.92;24.10;;;3.50;94.10;;;;;;5080446;28;20206;-44
2022/03/22 01:40:40;;;;;;;38.47;22.50;;;3.40;94.00;;;;;;5080257;28;20222;-45
2022/03/22 01:43:07;;;;;;;45.80;26.42;;;3.40;94.20;;;;;;5081466;28;20247;-46
2022/03/22 01:45:34;;;;;;;42.38;23.23;;;3.30;94.70;;;;;;5080576;28;20203;-46
2022/03/22 01:48:04;;;;;;;42.03;24.20;;;3.40;94.50;;;;;;5081314;28;20220;-47
2022/03/22 01:50:33;;;;;;;30.77;20.92;;;3.20;94.80;;;;;;5080402;28;20251;-43
2022/03/22 01:53:02;;;;;;;32.83;22.02;;;3.10;95.20;;;;;;5080721;28;20440;-43
2022/03/22 01:55:29;;;;;;;37.67;21.83;;;3.20;95.20;;;;;;5083064;28;20209;-48
2022/03/22 01:57:57;;;;;;;43.03;21.63;;;3.30;95.30;;;;;;5084853;28;20212;-43
2022/03/22 02:00:25;;;;;;;37.47;22.88;;;3.50;94.90;;;;;;5084792;28;20278;-45
2022/03/22 02:05:52;;;;;;;34.72;21.40;;;3.40;95.10;;;;;;5084224;28;20205;-45
2022/03/22 02:08:24;;;;;;;41.45;23.10;;;3.30;95.50;;;;;;5084190;28;20214;-42
2022/03/22 02:10:52;;;;;;;34.35;20.90;;;3.30;95.60;;;;;;5085066;28;20216;-45
2022/03/22 02:13:19;;;;;;;41.15;22.42;;;3.20;95.70;;;;;;5083847;28;20210;-44
2022/03/22 02:15:50;;;;;;;33.63;22.50;;;3.20;95.70;;;;;;5083952;28;20213;-43
2022/03/22 02:18:18;;;;;;;33.13;20.38;;;3.00;96.30;;;;;;5084207;28;20200;-42
2022/03/22 02:20:46;;;;;;;38.72;22.05;;;3.00;96.70;;;;;;5083903;28;20228;-47
2022/03/22 02:23:25;;;;;;;37.03;21.30;;;3.00;96.80;;;;;;5083561;28;20264;-44
2022/03/22 02:25:52;;;;;;;37.38;23.83;;;2.90;97.10;;;;;;5083062;28;20197;-44
2022/03/22 02:28:22;;;;;;;35.05;23.75;;;3.00;96.90;;;;;;5085393;28;20197;-45
2022/03/22 02:30:52;;;;;;;36.35;22.15;;;3.00;97.40;;;;;;5086184;28;20220;-47
2022/03/22 02:33:20;;;;;;;37.53;21.73;;;3.00;97.20;;;;;;5088173;28;20465;-49
2022/03/22 02:35:47;;;;;;;32.17;20.25;;;2.70;97.80;;;;;;5089295;28;20217;-48
2022/03/22 02:38:15;;;;;;;48.65;24.50;;;2.90;97.70;;;;;;5086444;28;20499;-44
2022/03/22 02:40:44;;;;;;;42.83;20.17;;;3.10;97.40;;;;;;5083076;28;20225;-45
2022/03/22 02:43:11;;;;;;;29.25;18.88;;;2.90;97.60;;;;;;5083550;28;20226;-42
2022/03/22 02:45:39;;;;;;;37.20;20.27;;;2.70;98.10;;;;;;5083241;28;20235;-47
2022/03/22 02:48:06;;;;;;;33.83;19.25;;;2.70;98.30;;;;;;5083583;28;20436;-46
2022/03/22 02:50:33;;;;;;;34.83;21.00;;;2.60;98.50;;;;;;5083077;28;20654;-46
2022/03/22 02:53:01;;;;;;;32.40;18.85;;;2.50;98.60;;;;;;5081871;28;20205;-44
2022/03/22 02:55:28;;;;;;;30.38;19.90;;;2.70;98.80;;;;;;5082998;28;20213;-46
2022/03/22 02:57:55;;;;;;;32.15;22.27;;;2.60;99.10;;;;;;5083080;28;20295;-43
2022/03/22 03:00:24;;;;;;;27.60;18.30;;;2.50;99.30;;;;;;5082698;28;20219;-44
2022/03/22 03:02:52;;;;;;;37.90;20.45;;;2.50;99.60;;;;;;5082811;28;20298;-45
2022/03/22 03:05:21;;;;;;;29.30;17.98;;;2.40;99.90;;;;;;5082597;28;20423;-46
2022/03/22 03:07:50;;;;;;;31.25;19.65;;;2.40;99.90;;;;;;5082748;28;20208;-45
2022/03/22 03:10:18;;;;;;;34.50;20.23;;;2.50;99.90;;;;;;5082734;28;20248;-45
2022/03/22 03:12:46;;;;;;;27.70;18.63;;;2.50;99.90;;;;;;5083436;28;20476;-46
2022/03/22 03:15:16;;;;;;;27.30;17.83;;;2.30;99.90;;;;;;5083493;28;20197;-43
2022/03/22 03:17:43;;;;;;;31.25;18.55;;;2.40;99.90;;;;;;5083933;28;20204;-47
2022/03/22 03:20:11;;;;;;;35.72;20.48;;;2.30;99.90;;;;;;5083481;28;20560;-45
2022/03/22 03:22:38;;;;;;;24.60;16.90;;;2.40;99.90;;;;;;5083686;28;20197;-44
2022/03/22 03:25:08;;;;;;;25.90;18.83;;;2.50;99.90;;;;;;5083144;28;20205;-43
2022/03/22 03:27:36;;;;;;;29.75;18.38;;;2.40;99.90;;;;;;5082959;28;20227;-44
2022/03/22 03:30:05;;;;;;;24.60;16.75;;;2.40;99.90;;;;;;5082986;28;20217;-42
2022/03/22 03:32:32;;;;;;;29.67;17.33;;;2.20;99.90;;;;;;5082656;28;20200;-45
2022/03/22 03:35:00;;;;;;;37.72;20.83;;;2.20;99.90;;;;;;5083077;28;20239;-43
2022/03/22 03:37:29;;;;;;;31.13;19.02;;;2.10;99.90;;;;;;5082073;28;20209;-44
2022/03/22 03:39:57;;;;;;;33.45;20.05;;;2.20;99.90;;;;;;5080859;28;20214;-46
2022/03/22 03:42:24;;;;;;;31.90;19.92;;;2.00;99.90;;;;;;5095796;28;20208;-43
2022/03/22 03:47:38;;;;;;;27.80;19.65;;;2.10;99.90;;;;;;5102877;28;20223;-44
2022/03/22 03:50:07;;;;;;;33.38;18.15;;;2.00;99.90;;;;;;5103932;28;20215;-45
2022/03/22 03:52:36;;;;;;;26.80;18.48;;;2.10;99.90;;;;;;5102891;28;20210;-46
2022/03/22 03:55:06;;;;;;;27.50;19.15;;;2.20;99.90;;;;;;5102214;28;20207;-45
2022/03/22 03:57:35;;;;;;;32.72;18.95;;;2.10;99.90;;;;;;5102208;28;20269;-44
2022/03/22 04:00:05;;;;;;;23.08;16.15;;;2.20;99.90;;;;;;5102040;28;20264;-43
2022/03/22 04:02:32;;;;;;;27.35;17.30;;;2.10;99.90;;;;;;5101774;28;20215;-45
2022/03/22 04:05:00;;;;;;;25.13;17.50;;;2.00;99.90;;;;;;5101944;28;20489;-47
2022/03/22 04:07:29;;;;;;;32.85;18.08;;;2.10;99.90;;;;;;5101974;28;20196;-47
2022/03/22 04:09:59;;;;;;;26.17;18.58;;;2.10;99.90;;;;;;5101985;28;20377;-46
2022/03/22 04:12:26;;;;;;;24.50;18.63;;;2.10;99.90;;;;;;5101833;28;20211;-46
2022/03/22 04:14:54;;;;;;;32.22;17.75;;;2.10;99.90;;;;;;5100836;28;20441;-42
2022/03/22 04:17:21;;;;;;;30.92;16.13;;;2.10;99.90;;;;;;5101088;28;20226;-42
2022/03/22 04:19:48;;;;;;;25.67;17.98;;;2.10;99.90;;;;;;5101580;28;20200;-44
2022/03/22 04:22:16;;;;;;;24.67;17.70;;;2.20;99.90;;;;;;5101850;28;20208;-43
2022/03/22 04:24:43;;;;;;;33.20;18.15;;;2.10;99.90;;;;;;5101029;28;20251;-46
2022/03/22 04:32:42;;;;;;;32.17;17.52;;;2.10;99.90;;;;;;5101863;28;20213;-45
2022/03/22 04:35:17;;;;;;;33.35;17.83;;;2.00;99.90;;;;;;5101917;28;20210;-48
2022/03/22 04:37:49;;;;;;;35.25;19.85;;;2.10;99.90;;;;;;5102540;28;20206;-45
2022/03/22 04:40:17;;;;;;;26.70;16.08;;;1.90;99.90;;;;;;5103011;28;20220;-45
2022/03/22 04:42:44;;;;;;;32.97;19.10;;;1.90;99.90;;;;;;5102336;28;20202;-44
2022/03/22 04:45:11;;;;;;;33.05;19.23;;;1.90;99.90;;;;;;5102900;28;20405;-47
2022/03/22 04:47:39;;;;;;;33.63;18.42;;;1.90;99.90;;;;;;5100601;28;20191;-43
2022/03/22 04:50:08;;;;;;;34.50;20.05;;;2.10;99.90;;;;;;5102656;28;20223;-46
2022/03/22 04:58:07;;;;;;;32.83;21.08;;;2.00;99.90;;;;;;5102250;28;20200;-46
2022/03/22 05:00:35;;;;;;;32.78;18.80;;;2.10;99.90;;;;;;5093130;28;20220;-47
2022/03/22 05:03:03;;;;;;;25.55;19.98;;;2.10;99.90;;;;;;5089934;28;20223;-44
2022/03/22 05:08:16;;;;;;;38.28;22.00;;;2.20;99.90;;;;;;5102230;28;20195;-46
2022/03/22 05:10:44;;;;;;;32.67;21.60;;;2.40;99.90;;;;;;5087786;28;20216;-46
2022/03/22 05:13:11;;;;;;;35.10;23.05;;;2.30;99.90;;;;;;5081336;28;20193;-45
2022/03/22 05:15:39;;;;;;;36.30;20.02;;;2.50;99.90;;;;;;5080756;28;20191;-45
2022/03/22 05:18:06;;;;;;;38.75;21.13;;;2.40;99.90;;;;;;5080921;28;20201;-44
2022/03/22 05:20:33;;;;;;;31.63;19.45;;;2.40;99.90;;;;;;5079819;28;20217;-44
2022/03/22 05:23:02;;;;;;;27.08;21.23;;;2.50;99.90;;;;;;5079637;28;20204;-45
2022/03/22 05:25:31;;;;;;;31.35;20.25;;;2.70;99.90;;;;;;5077024;28;20203;-46
2022/03/22 05:28:02;;;;;;;29.48;21.60;;;2.90;99.90;;;;;;5072751;28;20204;-45
2022/03/22 05:30:31;;;;;;;43.90;23.08;;;3.20;99.90;;;;;;5059941;28;20525;-48
2022/03/22 05:32:58;;;;;;;41.38;21.73;;;3.50;99.90;;;;;;5078062;28;20205;-44
2022/03/22 05:35:25;;;;;;;43.70;22.20;;;3.80;99.90;;;;;;5082477;28;20249;-46
2022/03/22 05:37:52;;;;;;;35.75;21.48;;;4.00;99.90;;;;;;5091696;28;20201;-43
2022/03/22 05:40:20;;;;;;;34.55;20.80;;;4.40;99.40;;;;;;5100041;28;20320;-45
2022/03/22 05:42:49;;;;;;;38.88;21.90;;;4.80;98.30;;;;;;5100263;28;20210;-50
2022/03/22 05:45:17;;;;;;;35.90;21.90;;;5.00;97.60;;;;;;5088703;28;20227;-48
2022/03/22 05:47:44;;;;;;;36.25;21.70;;;5.50;96.80;;;;;;5074568;28;20432;-46
2022/03/22 05:50:11;;;;;;;41.90;23.98;;;5.80;95.70;;;;;;5069096;28;20221;-45
2022/03/22 05:52:47;;;;;;;41.70;24.27;;;6.20;94.80;;;;;;5091816;28;20198;-49
2022/03/22 05:55:15;;;;;;;38.72;24.63;;;6.70;93.80;;;;;;5104368;28;20226;-50
2022/03/22 05:57:43;;;;;;;37.50;22.33;;;7.00;93.00;;;;;;5109365;28;20212;-48
2022/03/22 06:00:12;;;;;;;42.38;23.27;;;7.20;92.30;;;;;;5099535;28;20258;-46
2022/03/22 06:02:41;;;;;;;36.83;24.95;;;7.80;91.60;;;;;;5100375;28;20262;-45
2022/03/22 06:05:14;;;;;;;52.97;26.13;;;8.20;90.50;;;;;;5100527;28;20261;-44
2022/03/22 06:07:43;;;;;;;40.65;24.25;;;8.30;89.70;;;;;;5099807;28;20201;-48
2022/03/22 06:10:14;;;;;;;29.60;22.65;;;8.50;88.40;;;;;;5098776;28;20224;-46
2022/03/22 06:12:45;;;;;;;43.08;26.75;;;9.00;86.90;;;;;;5078851;28;20199;-46
2022/03/22 06:15:18;;;;;;;43.03;26.42;;;9.30;84.60;;;;;;5079544;28;20256;-49
2022/03/22 06:17:53;;;;;;;44.20;26.65;;;9.70;82.80;;;;;;5078527;28;20213;-47
2022/03/22 06:20:23;;;;;;;39.95;28.50;;;10.30;80.90;;;;;;5067282;28;20237;-44
2022/03/22 06:22:51;;;;;;;41.85;26.95;;;10.20;79.90;;;;;;5059607;28;20210;-46
2022/03/22 06:25:19;;;;;;;39.10;27.92;;;10.50;80.00;;;;;;5058510;28;20291;-44
2022/03/22 06:27:50;;;;;;;46.65;27.88;;;10.40;78.60;;;;;;5059797;28;20537;-47
2022/03/22 06:30:18;;;;;;;48.40;30.55;;;10.20;78.80;;;;;;5059043;28;20479;-44
2022/03/22 06:32:48;;;;;;;48.08;28.95;;;10.40;78.40;;;;;;5059559;28;20202;-47
2022/03/22 06:35:18;;;;;;;41.65;27.77;;;11.60;75.60;;;;;;5058879;28;20200;-52
2022/03/22 06:37:47;;;;;;;44.05;28.08;;;12.60;72.70;;;;;;5058811;28;20203;-47
2022/03/22 06:40:17;;;;;;;40.88;28.20;;;13.40;70.00;;;;;;5062773;28;20228;-48
2022/03/22 06:42:45;;;;;;;36.15;28.38;;;12.80;68.40;;;;;;5079041;28;20237;-47
2022/03/22 06:45:13;;;;;;;55.65;30.85;;;11.80;70.90;;;;;;5086280;28;20265;-48
2022/03/22 06:47:43;;;;;;;40.10;28.13;;;11.70;71.80;;;;;;5087062;28;20209;-45
2022/03/22 06:50:15;;;;;;;43.30;29.98;;;11.00;72.60;;;;;;5064570;28;20286;-50
2022/03/22 06:52:43;;;;;;;44.75;30.38;;;10.50;75.00;;;;;;5063169;28;20195;-46
2022/03/22 06:55:11;;;;;;;43.72;28.60;;;10.70;74.40;;;;;;5063132;28;20203;-46
2022/03/22 06:57:39;;;;;;;41.92;28.20;;;10.50;75.00;;;;;;5073886;28;20202;-48
2022/03/22 07:00:09;;;;;;;45.58;30.92;;;11.30;74.10;;;;;;5082726;28;20218;-46
2022/03/22 07:02:39;;;;;;;39.72;29.20;;;11.90;72.00;;;;;;5088472;28;20509;-45
2022/03/22 07:05:08;;;;;;;44.00;30.67;;;12.60;70.40;;;;;;5081636;28;20233;-46
2022/03/22 07:07:35;;;;;;;46.97;29.13;;;12.80;70.20;;;;;;5079063;28;20229;-46
2022/03/22 07:10:09;;;;;;;56.33;34.17;;;13.70;68.60;;;;;;5083964;28;20277;-46
2022/03/22 07:12:59;;;;;;;45.40;29.97;;;14.50;65.40;;;;;;5080825;28;20221;-49
2022/03/22 07:15:32;;;;;;;46.47;28.83;;;16.30;62.50;;;;;;5084035;28;20502;-50
2022/03/22 07:18:00;;;;;;;52.17;30.17;;;16.40;60.10;;;;;;5084602;28;20441;-48
2022/03/22 07:20:28;;;;;;;43.93;29.80;;;16.50;59.80;;;;;;5078812;28;20438;-47
2022/03/22 07:22:59;;;;;;;43.90;29.57;;;16.70;59.30;;;;;;5081509;28;20471;-47
2022/03/22 07:25:29;;;;;;;49.80;31.23;;;17.20;58.30;;;;;;5084731;28;20457;-44
2022/03/22 07:27:56;;;;;;;50.50;29.17;;;17.10;57.80;;;;;;5079707;28;20402;-47
2022/03/22 07:30:24;;;;;;;40.30;30.07;;;17.20;57.70;;;;;;5074389;28;20465;-49
2022/03/22 07:32:55;;;;;;;42.07;27.10;;;17.10;57.80;;;;;;5077067;28;20647;-48
2022/03/22 07:35:22;;;;;;;51.03;30.87;;;17.90;56.50;;;;;;5077953;28;20433;-51
2022/03/22 07:37:50;;;;;;;43.20;32.60;;;19.10;54.50;;;;;;5073748;28;20447;-48
2022/03/22 07:40:19;;;;;;;45.87;32.47;;;18.90;54.10;;;;;;5075753;28;20456;-47
2022/03/22 07:42:48;;;;;;;43.87;29.70;;;20.30;53.30;;;;;;5080030;28;20432;-47
2022/03/22 07:45:19;;;;;;;45.63;28.63;;;20.20;52.20;;;;;;5089850;28;20454;-49
2022/03/22 07:47:47;;;;;;;38.23;28.30;;;18.70;53.60;;;;;;5082752;28;20388;-44
2022/03/22 07:53:01;;;;;;;48.00;28.60;;;18.10;52.70;;;;;;5081378;28;20424;-49
2022/03/22 07:55:31;;;;;;;47.27;26.53;;;17.60;54.40;;;;;;5081412;28;20418;-44
2022/03/22 07:57:59;;;;;;;40.23;27.10;;;18.60;53.40;;;;;;5082160;28;20767;-47
2022/03/22 08:00:29;;;;;;;39.47;26.57;;;18.40;53.40;;;;;;5081888;28;20455;-48
2022/03/22 08:03:00;;;;;;;41.67;26.33;;;18.40;53.10;;;;;;5079374;28;20403;-49
2022/03/22 08:05:29;;;;;;;40.27;28.30;;;18.70;53.50;;;;;;5087396;28;20860;-48
2022/03/22 08:07:57;;;;;;;37.97;25.67;;;19.90;51.90;;;;;;5083967;28;20409;-51
2022/03/22 08:10:45;;;;;;;42.93;26.00;;;20.70;49.90;;;;;;5097674;28;20466;-47
2022/03/22 08:13:14;;;;;;;43.87;27.73;;;20.90;50.10;;;;;;5101559;28;20413;-46
2022/03/22 08:15:41;;;;;;;37.37;27.13;;;21.40;49.10;;;;;;5084837;28;20462;-48
2022/03/22 08:18:10;;;;;;;35.40;28.13;;;20.50;49.60;;;;;;5080782;28;20454;-47
2022/03/22 08:20:38;;;;;;;51.43;26.30;;;20.80;49.70;;;;;;5081216;28;20450;-46
2022/03/22 08:23:07;;;;;;;33.23;28.73;;;20.80;49.80;;;;;;5079826;28;20443;-47
2022/03/22 08:25:37;;;;;;;38.70;26.60;;;21.10;49.10;;;;;;5080849;28;20520;-48
2022/03/22 08:28:07;;;;;;;35.23;26.13;;;20.70;49.40;;;;;;5080859;28;20786;-48
2022/03/22 08:30:35;;;;;;;48.47;29.93;;;20.50;49.50;;;;;;5079335;28;20437;-47
2022/03/22 08:33:09;;;;;;;39.40;26.40;;;21.30;48.90;;;;;;5081294;28;20402;-47
2022/03/22 08:35:47;;;;;;;45.63;29.53;;;22.40;47.30;;;;;;5080528;28;20443;-48
2022/03/22 08:38:15;;;;;;;45.90;28.90;;;21.60;48.20;;;;;;5080971;28;20424;-48
2022/03/22 08:40:43;;;;;;;37.83;28.73;;;21.70;47.50;;;;;;5080564;28;20778;-49
2022/03/22 08:43:11;;;;;;;40.07;24.20;;;20.20;49.20;;;;;;5080293;28;20417;-48
2022/03/22 08:45:41;;;;;;;38.90;27.00;;;19.20;50.60;;;;;;5080429;28;20501;-51
2022/03/22 08:48:10;;;;;;;37.13;27.00;;;19.20;51.10;;;;;;5080745;28;20406;-52
2022/03/22 08:50:43;;;;;;;39.97;26.90;;;19.40;50.90;;;;;;5080624;28;20477;-51
2022/03/22 08:53:12;;;;;;;35.13;25.97;;;19.40;50.50;;;;;;5080706;28;20451;-49
2022/03/22 08:55:48;;;;;;;33.70;24.80;;;20.10;49.90;;;;;;5080508;28;20416;-50
2022/03/22 08:58:16;;;;;;;33.40;23.40;;;22.40;47.30;;;;;;5080433;28;20406;-50
2022/03/22 09:00:48;;;;;;;31.67;23.97;;;22.10;46.20;;;;;;5080678;28;20821;-47
2022/03/22 09:03:19;;;;;;;38.57;24.90;;;22.50;46.10;;;;;;5079760;28;20432;-47
2022/03/22 09:08:34;;;;;;;30.83;23.17;;;21.60;46.60;;;;;;5079737;28;20439;-48
2022/03/22 09:11:01;;;;;;;31.80;20.67;;;20.30;47.50;;;;;;5080015;28;20493;-48
2022/03/22 09:13:35;;;;;;;30.57;21.63;;;19.90;48.20;;;;;;5078936;28;20467;-46
2022/03/22 09:16:03;;;;;;;31.27;22.23;;;20.50;47.00;;;;;;5080161;28;20596;-46
2022/03/22 09:18:31;;;;;;;34.97;22.00;;;20.60;47.00;;;;;;5080298;28;20569;-47
2022/03/22 09:20:58;;;;;;;31.27;21.43;;;20.00;47.50;;;;;;5079720;28;20524;-47
2022/03/22 09:23:26;;;;;;;33.50;20.70;;;19.60;48.40;;;;;;5079736;28;20437;-47
2022/03/22 09:25:54;;;;;;;34.03;19.73;;;20.60;46.50;;;;;;5079774;28;20473;-51
2022/03/22 09:28:21;;;;;;;31.10;22.67;;;21.70;45.70;;;;;;5079948;28;20424;-49
2022/03/22 09:30:49;;;;;;;25.13;18.23;;;21.60;45.10;;;;;;5079827;28;20431;-50
2022/03/22 09:33:17;;;;;;;21.13;18.47;;;21.70;45.00;;;;;;5079751;28;20461;-45
2022/03/22 09:35:45;;;;;;;28.07;19.40;;;21.60;44.10;;;;;;5079871;28;20419;-47
2022/03/22 09:38:16;;;;;;;21.47;16.07;;;19.80;46.70;;;;;;5079507;28;20445;-49
2022/03/22 09:40:43;;;;;;;26.50;18.60;;;17.70;47.70;;;;;;5079630;28;20481;-47
2022/03/22 09:43:12;;;;;;;27.17;21.57;;;16.80;50.20;;;;;;5079525;28;20405;-47
2022/03/22 09:45:42;;;;;;;42.23;22.30;;;16.10;52.40;;;;;;5080221;28;20514;-45
2022/03/22 09:48:15;;;;;;;24.17;18.00;;;15.60;53.50;;;;;;5080394;28;20394;-46
2022/03/22 09:53:28;;;;;;;30.70;19.90;;;15.40;52.60;;;;;;5079591;28;20427;-48
2022/03/22 09:55:56;;;;;;;26.40;18.30;;;15.30;53.80;;;;;;5079724;28;20584;-47
2022/03/22 09:58:24;;;;;;;32.40;20.37;;;15.10;54.20;;;;;;5080286;28;20414;-48
2022/03/22 10:00:51;;;;;;;29.83;19.43;;;14.80;54.80;;;;;;5079846;28;20454;-49
2022/03/22 10:03:20;;;;;;;20.00;16.57;;;14.70;54.40;;;;;;5079431;28;20408;-47
2022/03/22 10:06:00;;;;;;;20.97;15.67;;;14.80;54.10;;;;;;5079802;28;20496;-46
2022/03/22 10:08:28;;;;;;;28.13;17.60;;;14.80;54.00;;;;;;5078687;28;20448;-48
2022/03/22 10:10:58;;;;;;;21.60;15.10;;;14.90;54.20;;;;;;5079731;28;20442;-48
2022/03/22 10:13:27;;;;;;;29.90;19.30;;;14.80;53.40;;;;;;5079771;28;20501;-45
2022/03/22 10:16:02;;;;;;;29.50;15.97;;;14.70;54.00;;;;;;5080100;28;20485;-48
2022/03/22 10:18:34;;;;;;;20.37;16.20;;;14.60;53.40;;;;;;5083393;28;20432;-51
2022/03/22 10:21:04;;;;;;;33.03;18.73;;;14.60;53.60;;;;;;5083813;28;20442;-50
2022/03/22 10:23:33;;;;;;;25.53;17.13;;;14.70;55.20;;;;;;5083105;28;20432;-47
2022/03/22 10:26:06;;;;;;;22.03;16.87;;;14.90;54.00;;;;;;5083574;28;20839;-44
2022/03/22 10:28:34;;;;;;;21.83;13.70;;;15.10;54.20;;;;;;5081559;28;20405;-46
2022/03/22 10:31:02;;;;;;;19.43;13.23;;;15.20;51.10;;;;;;5081916;28;20460;-45
2022/03/22 10:33:29;;;;;;;15.07;13.10;;;15.30;52.30;;;;;;5082544;28;20438;-47
2022/03/22 10:35:57;;;;;;;13.23;11.97;;;15.50;52.20;;;;;;5083383;28;20418;-49
2022/03/22 10:38:27;;;;;;;16.63;13.13;;;15.40;50.50;;;;;;5083562;28;20799;-49
2022/03/22 10:40:57;;;;;;;12.77;10.10;;;15.50;50.70;;;;;;5083462;28;20499;-47
2022/03/22 10:43:26;;;;;;;14.53;11.73;;;15.50;48.20;;;;;;5086714;28;20424;-48
2022/03/22 10:45:59;;;;;;;14.60;12.47;;;15.50;49.70;;;;;;5091533;28;20486;-48
2022/03/22 10:48:34;;;;;;;16.07;12.60;;;15.40;50.60;;;;;;5087317;28;20400;-46
2022/03/22 10:51:03;;;;;;;17.93;13.30;;;15.20;49.50;;;;;;5087906;28;20497;-47
2022/03/22 10:53:34;;;;;;;16.00;11.30;;;15.10;49.50;;;;;;5089762;28;20405;-51
2022/03/22 10:56:04;;;;;;;15.17;10.80;;;15.00;49.50;;;;;;5087512;28;20781;-50
2022/03/22 10:58:31;;;;;;;23.40;10.90;;;15.10;48.90;;;;;;5082451;28;20726;-47
2022/03/22 11:01:02;;;;;;;13.77;10.27;;;15.10;48.80;;;;;;5083354;28;20447;-49
2022/03/22 11:03:32;;;;;;;17.67;12.47;;;15.00;48.60;;;;;;5082816;28;20440;-51
2022/03/22 11:06:02;;;;;;;16.53;11.10;;;15.20;48.30;;;;;;5083243;28;20509;-50
2022/03/22 11:08:31;;;;;;;12.13;9.60;;;15.30;48.50;;;;;;5081381;28;20447;-49
2022/03/22 11:10:58;;;;;;;13.23;10.97;;;15.40;48.70;;;;;;5082592;28;20421;-48
2022/03/22 11:13:26;;;;;;;19.43;13.63;;;15.60;49.00;;;;;;5082342;28;20431;-50
2022/03/22 11:15:56;;;;;;;20.00;12.10;;;15.70;49.80;;;;;;5082845;28;20508;-45
2022/03/22 11:18:30;;;;;;;26.57;16.23;;;15.60;49.90;;;;;;5082520;28;20430;-50
2022/03/22 11:21:00;;;;;;;15.07;13.30;;;15.60;51.00;;;;;;5077337;28;20467;-46
2022/03/22 11:23:30;;;;;;;21.47;11.73;;;15.70;50.50;;;;;;5075388;28;20590;-45
2022/03/22 11:26:11;;;;;;;20.07;12.53;;;15.70;50.00;;;;;;5081413;28;20440;-46
2022/03/22 11:28:41;;;;;;;19.40;11.90;;;15.80;50.60;;;;;;5081026;28;20406;-48
2022/03/22 11:31:09;;;;;;;25.30;15.90;;;15.70;49.60;;;;;;5082119;28;20639;-49
2022/03/22 11:36:28;;;;;;;25.43;18.13;;;15.70;50.20;;;;;;5082106;28;20447;-45
2022/03/22 11:38:57;;;;;;;16.73;10.50;;;15.80;48.90;;;;;;5083006;28;20403;-47
2022/03/22 11:44:22;;;;;;;24.93;16.23;;;15.60;49.50;;;;;;5082908;28;20408;-48
2022/03/22 11:47:14;;;;;;;20.60;13.43;;;15.80;50.30;;;;;;5082682;28;20446;-48
2022/03/22 11:50:01;;;;;;;17.67;13.10;;;15.80;49.80;;;;;;5082504;28;20524;-48
2022/03/22 11:52:39;;;;;;;23.33;15.60;;;15.90;49.20;;;;;;5083100;28;20437;-48
2022/03/22 11:55:16;;;;;;;26.33;15.50;;;15.90;49.20;;;;;;5082100;28;20410;-51
2022/03/22 11:57:56;;;;;;;19.33;15.07;;;15.90;49.60;;;;;;5081691;28;20459;-48
2022/03/22 12:00:42;;;;;;;18.47;12.50;;;15.90;49.70;;;;;;5082123;28;20448;-47
2022/03/22 12:03:11;;;;;;;14.53;12.20;;;16.10;48.00;;;;;;5082132;28;20443;-49
2022/03/22 12:05:40;;;;;;;13.93;10.10;;;16.10;47.70;;;;;;5081496;28;20512;-49
2022/03/22 12:08:15;;;;;;;11.40;9.50;;;15.90;48.60;;;;;;5081805;28;20452;-48
2022/03/22 12:10:53;;;;;;;15.00;10.67;;;15.90;47.80;;;;;;5081723;28;20443;-48
2022/03/22 12:13:20;;;;;;;13.80;11.17;;;15.90;48.00;;;;;;5094253;28;20402;-48
2022/03/22 12:15:59;;;;;;;16.80;13.60;;;16.00;48.20;;;;;;5085746;28;20659;-46
2022/03/22 12:18:32;;;;;;;21.03;12.30;;;16.10;49.00;;;;;;5087117;28;20513;-45
2022/03/22 12:21:00;;;;;;;14.27;12.37;;;16.10;49.70;;;;;;5092884;28;20450;-47
2022/03/22 12:23:27;;;;;;;14.77;11.73;;;16.10;49.90;;;;;;5100824;28;20564;-49
2022/03/22 12:25:55;;;;;;;15.73;11.37;;;16.10;49.60;;;;;;5100365;28;20502;-46
2022/03/22 12:28:23;;;;;;;21.13;11.30;;;16.10;49.00;;;;;;5088458;28;20426;-48
2022/03/22 12:30:50;;;;;;;16.00;12.60;;;16.10;48.90;;;;;;5070543;28;20479;-49
2022/03/22 12:33:21;;;;;;;16.90;12.27;;;16.20;49.30;;;;;;5073484;28;20446;-47
2022/03/22 12:35:50;;;;;;;12.77;10.00;;;16.30;48.70;;;;;;5080508;28;20690;-47
2022/03/22 12:38:20;;;;;;;12.63;10.23;;;16.20;48.10;;;;;;5080296;28;20721;-48
2022/03/22 12:40:48;;;;;;;15.83;9.07;;;16.20;47.50;;;;;;5080868;28;20429;-51
2022/03/22 12:43:19;;;;;;;16.87;11.33;;;16.20;48.20;;;;;;5081014;28;20491;-47
2022/03/22 12:45:49;;;;;;;11.57;9.63;;;16.20;48.60;;;;;;5080319;28;20813;-48
2022/03/22 12:48:19;;;;;;;13.80;9.40;;;16.20;48.80;;;;;;5080602;28;20399;-45
2022/03/22 12:50:47;;;;;;;11.60;9.50;;;16.20;47.50;;;;;;5080128;28;20866;-50
2022/03/22 12:53:15;;;;;;;9.90;8.90;;;16.30;46.90;;;;;;5078043;28;20442;-49
2022/03/22 12:55:43;;;;;;;15.37;10.80;;;16.30;47.40;;;;;;5079617;28;20467;-47
2022/03/22 12:58:10;;;;;;;19.00;12.97;;;16.30;47.50;;;;;;5080405;28;20794;-52
2022/03/22 13:00:40;;;;;;;16.87;10.87;;;16.30;48.60;;;;;;5079764;28;20464;-48
2022/03/22 13:03:13;;;;;;;22.50;13.33;;;16.30;48.80;;;;;;5080098;28;20427;-46
2022/03/22 13:05:42;;;;;;;14.53;10.60;;;16.20;49.60;;;;;;5080349;28;20772;-49
2022/03/22 13:08:26;;;;;;;17.90;12.83;;;16.30;48.80;;;;;;5080061;28;20476;-48
2022/03/22 13:16:34;;;;;;;13.00;10.87;;;16.30;48.70;;;;;;5080086;28;20767;-49
2022/03/22 13:19:02;;;;;;;15.00;12.93;;;16.40;48.80;;;;;;5080285;28;20427;-48
2022/03/22 13:21:33;;;;;;;15.73;12.40;;;16.40;49.60;;;;;;5080196;28;20422;-48